Airfield :
LOGIN :

Register | Disclaimer

   EN    FR    IT 

 










Legend :    VFR   Marginal VFR   IFR   Intensive IFR   Very Intensive IFR
Visi :
Ceiling :
>= 8 km
>= 3000ft
5 to 8 km
1000 to 3000 ft
1500m to 5 km
500 to 1000 ft
800 to 1500m
200 to 500 ft
< 800m
< 200 ft
Symbols :   Thunderstorms  Fog  Heavy snow  Heavy precipitations  Wind > 20 kt
SIGMETs :     Misc.  Thunderstorms  Icing  Turbulence  Mountain Waves  Volcanic Ashes






- Airport Elevation : 257 ft
- IATA code : MAN


EGCC - Manchester

CURRENT METAR :
  • 011350Z 14003KT 090V200 4600 HZ BKN006 06/04 Q1029 TEMPO BKN004

EXPIRED METARs :
  • 011320Z 15003KT 090V200 5000 HZ BKN005 06/04 Q1029
  • 011250Z AUTO 19004KT 100V230 6000 OVC005 06/04 Q1029 TEMPO 4000 BR
  • 011220Z AUTO VRB03KT 6000 OVC005 06/04 Q1029 TEMPO BKN004
  • 011150Z AUTO 17003KT 110V230 5000 HZ OVC004 05/04 Q1029 TEMPO 4000 BR
  • 011120Z AUTO VRB02KT 5000 HZ OVC004 05/04 Q1029 TEMPO 4000 BR

TAF TAF EGCC
Valid from the 01 at 12:00 until the 02 at 18:00 UTC


011101Z 0112/0218 17004KT 6000 SCT005
TEMPO 0112/0119 4500 BR BKN005
PROB40
TEMPO 0112/0119 BKN004
TEMPO 0119/0212 2000 BR BKN004
PROB30 0119/0211 0300 FG BKN001
TEMPO 0212/0215 4000 BR BKN012
PROB40 0215/0218 9999
ATIS : +44 161 499 2324



MET'MAP, your aeronautical weather chart ! - Copyright ORBIFLY December 2007 - Disclaimer

ORBIFLY MET'MAP TEAM :

Programming & Development : Alexandra Zaïnal
Original concept : Baudouin d'Aumeries
Technical & hardware support : Manuel Goepfert
Assistance : Marc-Olivier Méhu




SOURCES & CREDITS :

   NOAA